Aérodrome :
LOGIN :

S'inscrire | Disclaimer

   EN    FR    IT 

 










Légende :    VFR   VFR Marginal   IFR   IFR Intensif   IFR Très Intensif
Visi : 
Plafond : 
>= 8 km
>= 3000ft
5 à 8 km
1000 à 3000 ft
1500m à 5 km
500 à 1000 ft
800 à 1500m
200 à 500 ft
< 800m
< 200 ft
Symboles :   Orages  Brouillard  Fortes neiges  Fortes précipitations  Vent > 20 kt
SIGMETs :   Divers  Orages  Givrage  Turbulence  Onde Orograph.  Cendres Volcan.







- Altitude de l'aérodrome : 278 ft
- Code IATA : RJK


LDRI - Rijeka

DERNIER METAR :
  • 260230Z 00000KT CAVOK 16/14 Q1014

METARs EXPIRÉS :
  • 260200Z VRB02KT CAVOK 15/13 Q1015
  • 260130Z VRB02KT CAVOK 16/14 Q1015
  • 260100Z VRB03KT CAVOK 17/14 Q1015
  • 260030Z VRB02KT CAVOK 16/14 Q1015
  • 260000Z VRB02KT CAVOK 16/14 Q1015

TAF TAF LDRI
Valide du 26 à 00h jusqu'au 27 à 00h UTC


252325Z 2600/2700 VRB02KT CAVOK TX25/2613Z TN15/2604Z
TEMPO 2608/2614 32007KT
Pas de NOTAMs connus pour ce terrain.



MET'MAP, la Météo Aéronautique d'un coup d'oeil ! - Copyright ORBIFLY Décembre 2007 - Disclaimer

ORBIFLY MET'MAP TEAM :

Programmation & Développement : Alexandra Zaïnal
Conception & Développement : Baudouin d'Aumeries
Co-Programmation & Développement : Marc-Olivier Méhu
Soutien technique & logistique : Manuel Goepfert

Contact : metmap@orbifly.com




SOURCES & CREDITS :

   NOAA